sensor_id;sensor_type;location;lat;lon;timestamp;P1;durP1;ratioP1;P2;durP2;ratioP2
39880;SDS011;25554;44.954;10.068;2022-08-20T00:00:41;4.15;;;3.65;;
39880;SDS011;25554;44.954;10.068;2022-08-20T00:03:19;6.47;;;4.43;;
39880;SDS011;25554;44.954;10.068;2022-08-20T00:05:49;6.65;;;4.70;;
39880;SDS011;25554;44.954;10.068;2022-08-20T00:08:19;4.22;;;3.83;;
39880;SDS011;25554;44.954;10.068;2022-08-20T00:10:47;6.45;;;4.38;;
39880;SDS011;25554;44.954;10.068;2022-08-20T00:13:18;5.78;;;4.60;;
39880;SDS011;25554;44.954;10.068;2022-08-20T00:15:47;5.32;;;4.82;;
39880;SDS011;25554;44.954;10.068;2022-08-20T00:18:14;5.32;;;4.82;;
39880;SDS011;25554;44.954;10.068;2022-08-20T00:20:43;6.78;;;4.65;;
39880;SDS011;25554;44.954;10.068;2022-08-20T00:23:12;6.85;;;5.72;;
39880;SDS011;25554;44.954;10.068;2022-08-20T00:25:40;9.02;;;5.80;;
39880;SDS011;25554;44.954;10.068;2022-08-20T00:28:07;9.25;;;6.22;;
39880;SDS011;25554;44.954;10.068;2022-08-20T00:33:03;10.45;;;6.03;;
39880;SDS011;25554;44.954;10.068;2022-08-20T00:35:33;8.93;;;6.13;;
39880;SDS011;25554;44.954;10.068;2022-08-20T00:38:03;7.03;;;5.70;;
39880;SDS011;25554;44.954;10.068;2022-08-20T00:40:32;6.43;;;5.78;;
39880;SDS011;25554;44.954;10.068;2022-08-20T00:43:05;8.05;;;5.72;;
39880;SDS011;25554;44.954;10.068;2022-08-20T00:45:33;8.35;;;6.90;;
39880;SDS011;25554;44.954;10.068;2022-08-20T00:48:00;7.60;;;6.00;;
39880;SDS011;25554;44.954;10.068;2022-08-20T00:52:59;8.80;;;5.85;;
39880;SDS011;25554;44.954;10.068;2022-08-20T00:55:27;7.45;;;6.18;;
39880;SDS011;25554;44.954;10.068;2022-08-20T00:57:56;7.65;;;6.07;;
39880;SDS011;25554;44.954;10.068;2022-08-20T01:00:27;7.10;;;6.47;;
39880;SDS011;25554;44.954;10.068;2022-08-20T01:02:57;7.43;;;6.78;;
39880;SDS011;25554;44.954;10.068;2022-08-20T01:05:25;7.47;;;6.53;;
39880;SDS011;25554;44.954;10.068;2022-08-20T01:07:52;8.13;;;6.85;;
39880;SDS011;25554;44.954;10.068;2022-08-20T01:10:22;7.97;;;7.18;;
39880;SDS011;25554;44.954;10.068;2022-08-20T01:12:52;10.07;;;7.40;;
39880;SDS011;25554;44.954;10.068;2022-08-20T01:15:23;8.27;;;7.53;;
39880;SDS011;25554;44.954;10.068;2022-08-20T01:17:52;9.38;;;8.48;;
39880;SDS011;25554;44.954;10.068;2022-08-20T01:20:31;10.57;;;7.85;;
39880;SDS011;25554;44.954;10.068;2022-08-20T01:28:30;9.50;;;8.60;;
39880;SDS011;25554;44.954;10.068;2022-08-20T01:31:05;10.00;;;9.00;;
39880;SDS011;25554;44.954;10.068;2022-08-20T01:33:33;8.70;;;7.90;;
39880;SDS011;25554;44.954;10.068;2022-08-20T01:36:01;8.90;;;8.00;;
39880;SDS011;25554;44.954;10.068;2022-08-20T01:38:28;8.98;;;8.07;;
39880;SDS011;25554;44.954;10.068;2022-08-20T01:43:47;9.80;;;8.90;;
39880;SDS011;25554;44.954;10.068;2022-08-20T01:46:16;10.95;;;9.57;;
39880;SDS011;25554;44.954;10.068;2022-08-20T01:48:43;9.85;;;8.95;;
39880;SDS011;25554;44.954;10.068;2022-08-20T01:51:14;10.60;;;9.50;;
39880;SDS011;25554;44.954;10.068;2022-08-20T01:53:47;10.57;;;9.25;;
39880;SDS011;25554;44.954;10.068;2022-08-20T01:56:18;9.98;;;9.02;;
39880;SDS011;25554;44.954;10.068;2022-08-20T01:58:47;12.15;;;9.38;;
39880;SDS011;25554;44.954;10.068;2022-08-20T02:01:19;10.65;;;9.63;;
39880;SDS011;25554;44.954;10.068;2022-08-20T02:03:58;10.45;;;9.25;;
39880;SDS011;25554;44.954;10.068;2022-08-20T02:06:28;12.02;;;9.85;;
39880;SDS011;25554;44.954;10.068;2022-08-20T02:09:02;12.20;;;11.00;;
39880;SDS011;25554;44.954;10.068;2022-08-20T02:11:30;10.68;;;9.73;;
39880;SDS011;25554;44.954;10.068;2022-08-20T02:13:59;12.55;;;11.10;;
39880;SDS011;25554;44.954;10.068;2022-08-20T02:16:31;11.60;;;10.32;;
39880;SDS011;25554;44.954;10.068;2022-08-20T02:19:00;11.82;;;10.65;;
39880;SDS011;25554;44.954;10.068;2022-08-20T02:21:35;12.75;;;11.55;;
39880;SDS011;25554;44.954;10.068;2022-08-20T02:24:09;12.82;;;11.52;;
39880;SDS011;25554;44.954;10.068;2022-08-20T02:26:36;12.40;;;11.07;;
39880;SDS011;25554;44.954;10.068;2022-08-20T02:29:07;12.48;;;11.15;;
39880;SDS011;25554;44.954;10.068;2022-08-20T02:31:35;12.10;;;11.00;;
39880;SDS011;25554;44.954;10.068;2022-08-20T02:34:03;13.30;;;12.02;;
39880;SDS011;25554;44.954;10.068;2022-08-20T02:36:31;12.52;;;11.32;;
39880;SDS011;25554;44.954;10.068;2022-08-20T02:38:57;12.60;;;11.30;;
39880;SDS011;25554;44.954;10.068;2022-08-20T02:41:24;13.15;;;10.65;;
39880;SDS011;25554;44.954;10.068;2022-08-20T02:43:51;19.70;;;14.45;;
39880;SDS011;25554;44.954;10.068;2022-08-20T02:46:17;16.85;;;15.18;;
39880;SDS011;25554;44.954;10.068;2022-08-20T02:48:44;15.50;;;13.88;;
39880;SDS011;25554;44.954;10.068;2022-08-20T02:51:10;14.50;;;13.20;;
39880;SDS011;25554;44.954;10.068;2022-08-20T02:53:38;13.95;;;12.65;;
39880;SDS011;25554;44.954;10.068;2022-08-20T02:56:07;13.57;;;12.20;;
39880;SDS011;25554;44.954;10.068;2022-08-20T02:58:35;14.32;;;13.00;;
39880;SDS011;25554;44.954;10.068;2022-08-20T03:01:03;13.25;;;11.95;;
39880;SDS011;25554;44.954;10.068;2022-08-20T03:03:31;13.63;;;12.25;;
39880;SDS011;25554;44.954;10.068;2022-08-20T03:08:25;14.23;;;12.70;;
39880;SDS011;25554;44.954;10.068;2022-08-20T03:10:53;14.60;;;11.70;;
39880;SDS011;25554;44.954;10.068;2022-08-20T03:13:20;13.13;;;11.77;;
39880;SDS011;25554;44.954;10.068;2022-08-20T03:15:50;11.15;;;10.05;;
39880;SDS011;25554;44.954;10.068;2022-08-20T03:18:22;13.00;;;11.85;;
39880;SDS011;25554;44.954;10.068;2022-08-20T03:20:50;14.00;;;12.60;;
39880;SDS011;25554;44.954;10.068;2022-08-20T03:23:17;13.43;;;12.15;;
39880;SDS011;25554;44.954;10.068;2022-08-20T03:25:45;12.73;;;11.43;;
39880;SDS011;25554;44.954;10.068;2022-08-20T03:28:12;12.27;;;10.98;;
39880;SDS011;25554;44.954;10.068;2022-08-20T03:30:40;11.75;;;10.55;;
39880;SDS011;25554;44.954;10.068;2022-08-20T03:33:07;11.68;;;10.57;;
39880;SDS011;25554;44.954;10.068;2022-08-20T03:35:34;11.52;;;10.40;;
39880;SDS011;25554;44.954;10.068;2022-08-20T03:38:05;11.95;;;10.63;;
39880;SDS011;25554;44.954;10.068;2022-08-20T03:40:33;12.25;;;11.05;;
39880;SDS011;25554;44.954;10.068;2022-08-20T03:43:01;11.35;;;10.30;;
39880;SDS011;25554;44.954;10.068;2022-08-20T03:45:28;14.15;;;11.50;;
39880;SDS011;25554;44.954;10.068;2022-08-20T03:50:23;11.65;;;10.45;;
39880;SDS011;25554;44.954;10.068;2022-08-20T03:52:51;15.18;;;10.93;;
39880;SDS011;25554;44.954;10.068;2022-08-20T03:55:19;10.63;;;9.55;;
39880;SDS011;25554;44.954;10.068;2022-08-20T03:57:48;12.10;;;9.55;;
39880;SDS011;25554;44.954;10.068;2022-08-20T04:00:21;10.88;;;9.77;;
39880;SDS011;25554;44.954;10.068;2022-08-20T04:02:57;16.10;;;9.70;;
39880;SDS011;25554;44.954;10.068;2022-08-20T04:05:26;10.77;;;7.97;;
39880;SDS011;25554;44.954;10.068;2022-08-20T04:07:55;8.32;;;7.50;;
39880;SDS011;25554;44.954;10.068;2022-08-20T04:10:23;8.88;;;7.95;;
39880;SDS011;25554;44.954;10.068;2022-08-20T04:15:16;7.00;;;6.20;;
39880;SDS011;25554;44.954;10.068;2022-08-20T04:17:45;7.97;;;6.80;;
39880;SDS011;25554;44.954;10.068;2022-08-20T04:20:15;6.63;;;5.80;;
39880;SDS011;25554;44.954;10.068;2022-08-20T04:22:43;7.93;;;5.80;;
39880;SDS011;25554;44.954;10.068;2022-08-20T04:25:13;6.32;;;5.68;;
39880;SDS011;25554;44.954;10.068;2022-08-20T04:27:39;5.72;;;4.65;;
39880;SDS011;25554;44.954;10.068;2022-08-20T04:30:08;6.25;;;4.15;;
39880;SDS011;25554;44.954;10.068;2022-08-20T04:32:36;4.85;;;4.35;;
39880;SDS011;25554;44.954;10.068;2022-08-20T04:35:07;4.15;;;3.67;;
39880;SDS011;25554;44.954;10.068;2022-08-20T04:37:36;5.78;;;3.60;;
39880;SDS011;25554;44.954;10.068;2022-08-20T04:40:10;3.75;;;3.42;;
39880;SDS011;25554;44.954;10.068;2022-08-20T04:42:58;3.42;;;3.13;;
39880;SDS011;25554;44.954;10.068;2022-08-20T04:45:25;3.60;;;3.17;;
39880;SDS011;25554;44.954;10.068;2022-08-20T04:50:18;5.85;;;3.30;;
39880;SDS011;25554;44.954;10.068;2022-08-20T04:52:45;5.05;;;3.53;;
39880;SDS011;25554;44.954;10.068;2022-08-20T04:55:15;4.05;;;3.15;;
39880;SDS011;25554;44.954;10.068;2022-08-20T04:57:42;3.75;;;3.08;;
39880;SDS011;25554;44.954;10.068;2022-08-20T05:00:11;3.65;;;2.95;;
39880;SDS011;25554;44.954;10.068;2022-08-20T05:02:40;7.13;;;3.17;;
39880;SDS011;25554;44.954;10.068;2022-08-20T05:05:07;5.07;;;2.83;;
39880;SDS011;25554;44.954;10.068;2022-08-20T05:07:41;7.35;;;3.10;;
39880;SDS011;25554;44.954;10.068;2022-08-20T05:10:11;6.78;;;2.83;;
39880;SDS011;25554;44.954;10.068;2022-08-20T05:12:40;3.38;;;2.85;;
39880;SDS011;25554;44.954;10.068;2022-08-20T05:15:09;4.50;;;2.92;;
39880;SDS011;25554;44.954;10.068;2022-08-20T05:17:39;4.45;;;2.78;;
39880;SDS011;25554;44.954;10.068;2022-08-20T05:20:08;3.55;;;3.25;;
39880;SDS011;25554;44.954;10.068;2022-08-20T05:22:36;6.13;;;3.08;;
39880;SDS011;25554;44.954;10.068;2022-08-20T05:25:03;3.70;;;3.30;;
39880;SDS011;25554;44.954;10.068;2022-08-20T05:27:30;5.03;;;3.42;;
39880;SDS011;25554;44.954;10.068;2022-08-20T05:30:01;6.30;;;2.60;;
39880;SDS011;25554;44.954;10.068;2022-08-20T05:32:33;3.20;;;2.90;;
39880;SDS011;25554;44.954;10.068;2022-08-20T05:35:01;3.83;;;2.92;;
39880;SDS011;25554;44.954;10.068;2022-08-20T05:37:28;3.92;;;3.22;;
39880;SDS011;25554;44.954;10.068;2022-08-20T05:39:56;3.80;;;2.80;;
39880;SDS011;25554;44.954;10.068;2022-08-20T05:42:22;4.97;;;3.00;;
39880;SDS011;25554;44.954;10.068;2022-08-20T05:44:48;6.20;;;3.97;;
39880;SDS011;25554;44.954;10.068;2022-08-20T05:47:15;4.43;;;2.85;;
39880;SDS011;25554;44.954;10.068;2022-08-20T05:49:43;6.82;;;3.90;;
39880;SDS011;25554;44.954;10.068;2022-08-20T05:52:11;5.60;;;3.97;;
39880;SDS011;25554;44.954;10.068;2022-08-20T05:57:04;5.03;;;3.63;;
39880;SDS011;25554;44.954;10.068;2022-08-20T05:59:30;5.82;;;4.22;;
39880;SDS011;25554;44.954;10.068;2022-08-20T06:01:59;5.10;;;3.72;;
39880;SDS011;25554;44.954;10.068;2022-08-20T06:07:00;7.50;;;3.92;;
39880;SDS011;25554;44.954;10.068;2022-08-20T06:09:28;4.60;;;4.20;;
39880;SDS011;25554;44.954;10.068;2022-08-20T06:11:55;6.32;;;4.40;;
39880;SDS011;25554;44.954;10.068;2022-08-20T06:14:24;6.88;;;3.97;;
39880;SDS011;25554;44.954;10.068;2022-08-20T06:16:51;5.03;;;4.10;;
39880;SDS011;25554;44.954;10.068;2022-08-20T06:19:17;4.50;;;4.05;;
39880;SDS011;25554;44.954;10.068;2022-08-20T06:21:44;5.25;;;3.50;;
39880;SDS011;25554;44.954;10.068;2022-08-20T06:24:10;7.72;;;3.67;;
39880;SDS011;25554;44.954;10.068;2022-08-20T06:29:04;4.45;;;3.40;;
39880;SDS011;25554;44.954;10.068;2022-08-20T06:31:31;3.88;;;3.25;;
39880;SDS011;25554;44.954;10.068;2022-08-20T06:33:59;3.42;;;3.00;;
39880;SDS011;25554;44.954;10.068;2022-08-20T06:36:26;4.97;;;3.65;;
39880;SDS011;25554;44.954;10.068;2022-08-20T06:38:52;4.32;;;2.83;;
39880;SDS011;25554;44.954;10.068;2022-08-20T06:41:23;3.92;;;2.33;;
39880;SDS011;25554;44.954;10.068;2022-08-20T06:43:49;2.63;;;2.30;;
39880;SDS011;25554;44.954;10.068;2022-08-20T06:46:18;8.48;;;2.30;;
39880;SDS011;25554;44.954;10.068;2022-08-20T06:48:45;3.13;;;2.00;;
39880;SDS011;25554;44.954;10.068;2022-08-20T06:51:11;7.40;;;2.60;;
39880;SDS011;25554;44.954;10.068;2022-08-20T06:53:38;5.70;;;2.42;;
39880;SDS011;25554;44.954;10.068;2022-08-20T06:56:04;5.13;;;2.38;;
39880;SDS011;25554;44.954;10.068;2022-08-20T06:58:31;6.03;;;2.47;;
39880;SDS011;25554;44.954;10.068;2022-08-20T07:00:57;2.03;;;1.65;;
39880;SDS011;25554;44.954;10.068;2022-08-20T07:03:25;3.22;;;2.10;;
39880;SDS011;25554;44.954;10.068;2022-08-20T07:05:52;3.47;;;2.30;;
39880;SDS011;25554;44.954;10.068;2022-08-20T07:08:18;3.13;;;1.95;;
39880;SDS011;25554;44.954;10.068;2022-08-20T07:10:47;5.57;;;2.63;;
39880;SDS011;25554;44.954;10.068;2022-08-20T07:13:13;3.17;;;2.00;;
39880;SDS011;25554;44.954;10.068;2022-08-20T07:15:42;3.72;;;2.55;;
39880;SDS011;25554;44.954;10.068;2022-08-20T07:18:10;4.65;;;2.72;;
39880;SDS011;25554;44.954;10.068;2022-08-20T07:20:38;4.82;;;2.42;;
39880;SDS011;25554;44.954;10.068;2022-08-20T07:23:05;4.43;;;2.42;;
39880;SDS011;25554;44.954;10.068;2022-08-20T07:25:32;4.03;;;2.53;;
39880;SDS011;25554;44.954;10.068;2022-08-20T07:28:00;3.45;;;2.30;;
39880;SDS011;25554;44.954;10.068;2022-08-20T07:30:32;2.10;;;1.77;;
39880;SDS011;25554;44.954;10.068;2022-08-20T07:33:17;6.18;;;2.05;;
39880;SDS011;25554;44.954;10.068;2022-08-20T07:35:44;2.95;;;2.03;;
39880;SDS011;25554;44.954;10.068;2022-08-20T07:38:14;5.10;;;2.20;;
39880;SDS011;25554;44.954;10.068;2022-08-20T07:40:53;2.67;;;2.03;;
39880;SDS011;25554;44.954;10.068;2022-08-20T07:43:21;4.00;;;1.75;;
39880;SDS011;25554;44.954;10.068;2022-08-20T07:45:49;2.08;;;1.83;;
39880;SDS011;25554;44.954;10.068;2022-08-20T07:48:16;3.25;;;2.10;;
39880;SDS011;25554;44.954;10.068;2022-08-20T07:50:43;1.50;;;1.33;;
39880;SDS011;25554;44.954;10.068;2022-08-20T07:53:09;2.17;;;1.70;;
39880;SDS011;25554;44.954;10.068;2022-08-20T07:55:36;6.15;;;2.22;;
39880;SDS011;25554;44.954;10.068;2022-08-20T07:58:05;7.03;;;2.30;;
39880;SDS011;25554;44.954;10.068;2022-08-20T08:00:37;1.88;;;1.58;;
39880;SDS011;25554;44.954;10.068;2022-08-20T08:03:04;2.70;;;1.95;;
39880;SDS011;25554;44.954;10.068;2022-08-20T08:05:31;4.07;;;1.95;;
39880;SDS011;25554;44.954;10.068;2022-08-20T08:08:00;3.20;;;1.70;;
39880;SDS011;25554;44.954;10.068;2022-08-20T08:10:28;7.78;;;2.63;;
39880;SDS011;25554;44.954;10.068;2022-08-20T08:12:55;2.95;;;1.50;;
39880;SDS011;25554;44.954;10.068;2022-08-20T08:15:25;6.68;;;2.47;;
39880;SDS011;25554;44.954;10.068;2022-08-20T08:17:58;2.45;;;2.03;;
39880;SDS011;25554;44.954;10.068;2022-08-20T08:20:28;3.33;;;2.20;;
39880;SDS011;25554;44.954;10.068;2022-08-20T08:25:22;2.70;;;2.50;;
39880;SDS011;25554;44.954;10.068;2022-08-20T08:30:14;4.97;;;3.42;;
39880;SDS011;25554;44.954;10.068;2022-08-20T08:32:42;3.35;;;2.50;;
39880;SDS011;25554;44.954;10.068;2022-08-20T08:35:28;3.83;;;2.53;;
39880;SDS011;25554;44.954;10.068;2022-08-20T08:37:57;5.30;;;2.28;;
39880;SDS011;25554;44.954;10.068;2022-08-20T08:40:25;3.95;;;2.25;;
39880;SDS011;25554;44.954;10.068;2022-08-20T08:42:52;5.18;;;2.35;;
39880;SDS011;25554;44.954;10.068;2022-08-20T08:45:32;4.72;;;2.75;;
39880;SDS011;25554;44.954;10.068;2022-08-20T08:48:06;6.35;;;2.45;;
39880;SDS011;25554;44.954;10.068;2022-08-20T08:50:35;5.78;;;2.20;;
39880;SDS011;25554;44.954;10.068;2022-08-20T08:53:03;2.47;;;2.28;;
39880;SDS011;25554;44.954;10.068;2022-08-20T08:55:35;2.38;;;2.17;;
39880;SDS011;25554;44.954;10.068;2022-08-20T08:58:02;4.13;;;2.70;;
39880;SDS011;25554;44.954;10.068;2022-08-20T09:00:29;3.28;;;2.60;;
39880;SDS011;25554;44.954;10.068;2022-08-20T09:02:58;3.83;;;2.50;;
39880;SDS011;25554;44.954;10.068;2022-08-20T09:08:22;6.07;;;2.50;;
39880;SDS011;25554;44.954;10.068;2022-08-20T09:10:52;2.47;;;2.28;;
39880;SDS011;25554;44.954;10.068;2022-08-20T09:13:18;6.63;;;1.83;;
39880;SDS011;25554;44.954;10.068;2022-08-20T09:15:45;5.60;;;1.83;;
39880;SDS011;25554;44.954;10.068;2022-08-20T09:20:37;3.00;;;2.03;;
39880;SDS011;25554;44.954;10.068;2022-08-20T09:25:31;1.75;;;1.60;;
39880;SDS011;25554;44.954;10.068;2022-08-20T09:27:58;3.75;;;1.58;;
39880;SDS011;25554;44.954;10.068;2022-08-20T09:32:50;4.00;;;1.42;;
39880;SDS011;25554;44.954;10.068;2022-08-20T09:35:17;1.50;;;1.38;;
39880;SDS011;25554;44.954;10.068;2022-08-20T09:37:43;3.83;;;1.70;;
39880;SDS011;25554;44.954;10.068;2022-08-20T09:40:11;1.60;;;1.25;;
39880;SDS011;25554;44.954;10.068;2022-08-20T09:42:38;2.55;;;1.20;;
39880;SDS011;25554;44.954;10.068;2022-08-20T09:45:05;2.75;;;1.83;;
39880;SDS011;25554;44.954;10.068;2022-08-20T09:47:32;1.10;;;1.10;;
39880;SDS011;25554;44.954;10.068;2022-08-20T09:49:58;2.78;;;1.70;;
39880;SDS011;25554;44.954;10.068;2022-08-20T09:52:26;3.38;;;1.83;;
39880;SDS011;25554;44.954;10.068;2022-08-20T09:54:57;1.52;;;1.40;;
39880;SDS011;25554;44.954;10.068;2022-08-20T09:57:26;1.20;;;1.10;;
39880;SDS011;25554;44.954;10.068;2022-08-20T09:59:56;2.88;;;1.48;;
39880;SDS011;25554;44.954;10.068;2022-08-20T10:02:24;13.02;;;7.40;;
39880;SDS011;25554;44.954;10.068;2022-08-20T10:04:51;6.75;;;3.30;;
39880;SDS011;25554;44.954;10.068;2022-08-20T10:07:17;3.38;;;1.67;;
39880;SDS011;25554;44.954;10.068;2022-08-20T10:09:44;2.35;;;1.25;;
39880;SDS011;25554;44.954;10.068;2022-08-20T10:12:10;3.03;;;1.52;;
39880;SDS011;25554;44.954;10.068;2022-08-20T10:14:37;1.75;;;1.63;;
39880;SDS011;25554;44.954;10.068;2022-08-20T10:17:03;4.40;;;1.50;;
39880;SDS011;25554;44.954;10.068;2022-08-20T10:21:56;2.13;;;1.38;;
39880;SDS011;25554;44.954;10.068;2022-08-20T10:24:23;1.40;;;1.30;;
39880;SDS011;25554;44.954;10.068;2022-08-20T10:26:50;2.15;;;1.30;;
39880;SDS011;25554;44.954;10.068;2022-08-20T10:29:21;1.65;;;1.55;;
39880;SDS011;25554;44.954;10.068;2022-08-20T10:31:47;1.38;;;1.27;;
39880;SDS011;25554;44.954;10.068;2022-08-20T10:34:14;1.52;;;1.40;;
39880;SDS011;25554;44.954;10.068;2022-08-20T10:36:41;3.30;;;1.30;;
39880;SDS011;25554;44.954;10.068;2022-08-20T10:39:08;1.92;;;1.70;;
39880;SDS011;25554;44.954;10.068;2022-08-20T10:41:34;3.22;;;1.80;;
39880;SDS011;25554;44.954;10.068;2022-08-20T10:44:01;3.95;;;1.42;;
39880;SDS011;25554;44.954;10.068;2022-08-20T10:46:28;1.50;;;1.40;;
39880;SDS011;25554;44.954;10.068;2022-08-20T10:48:55;2.00;;;1.30;;
39880;SDS011;25554;44.954;10.068;2022-08-20T10:51:21;2.40;;;1.50;;
39880;SDS011;25554;44.954;10.068;2022-08-20T10:53:47;1.92;;;1.73;;
39880;SDS011;25554;44.954;10.068;2022-08-20T10:58:40;2.67;;;1.60;;
39880;SDS011;25554;44.954;10.068;2022-08-20T11:03:33;2.08;;;1.73;;
39880;SDS011;25554;44.954;10.068;2022-08-20T11:06:00;6.32;;;2.58;;
39880;SDS011;25554;44.954;10.068;2022-08-20T11:08:27;2.15;;;2.00;;
39880;SDS011;25554;44.954;10.068;2022-08-20T11:10:53;1.70;;;1.60;;
39880;SDS011;25554;44.954;10.068;2022-08-20T11:13:20;2.35;;;1.48;;
39880;SDS011;25554;44.954;10.068;2022-08-20T11:15:47;4.45;;;1.75;;
39880;SDS011;25554;44.954;10.068;2022-08-20T11:18:13;3.10;;;2.20;;
39880;SDS011;25554;44.954;10.068;2022-08-20T11:20:40;2.55;;;1.58;;
39880;SDS011;25554;44.954;10.068;2022-08-20T11:23:07;3.92;;;1.70;;
39880;SDS011;25554;44.954;10.068;2022-08-20T11:25:33;2.67;;;1.77;;
39880;SDS011;25554;44.954;10.068;2022-08-20T11:28:00;1.90;;;1.45;;
39880;SDS011;25554;44.954;10.068;2022-08-20T11:30:29;2.25;;;1.30;;
39880;SDS011;25554;44.954;10.068;2022-08-20T11:32:57;1.30;;;1.17;;
39880;SDS011;25554;44.954;10.068;2022-08-20T11:35:25;1.95;;;1.05;;
39880;SDS011;25554;44.954;10.068;2022-08-20T11:37:54;2.65;;;1.25;;
39880;SDS011;25554;44.954;10.068;2022-08-20T11:40:21;3.42;;;1.10;;
39880;SDS011;25554;44.954;10.068;2022-08-20T11:42:49;1.98;;;1.30;;
39880;SDS011;25554;44.954;10.068;2022-08-20T11:45:15;1.75;;;1.30;;
39880;SDS011;25554;44.954;10.068;2022-08-20T11:47:42;2.92;;;1.42;;
39880;SDS011;25554;44.954;10.068;2022-08-20T11:50:17;1.40;;;1.30;;
39880;SDS011;25554;44.954;10.068;2022-08-20T11:52:45;3.63;;;1.17;;
39880;SDS011;25554;44.954;10.068;2022-08-20T11:55:12;3.20;;;1.25;;
39880;SDS011;25554;44.954;10.068;2022-08-20T11:57:41;1.00;;;0.90;;
39880;SDS011;25554;44.954;10.068;2022-08-20T12:00:12;1.60;;;1.10;;
39880;SDS011;25554;44.954;10.068;2022-08-20T12:02:41;0.95;;;0.95;;
39880;SDS011;25554;44.954;10.068;2022-08-20T12:05:08;2.63;;;1.30;;
39880;SDS011;25554;44.954;10.068;2022-08-20T12:07:36;1.20;;;1.10;;
39880;SDS011;25554;44.954;10.068;2022-08-20T12:10:03;1.42;;;1.25;;
39880;SDS011;25554;44.954;10.068;2022-08-20T12:12:31;1.75;;;1.25;;
39880;SDS011;25554;44.954;10.068;2022-08-20T12:14:57;1.30;;;1.20;;
39880;SDS011;25554;44.954;10.068;2022-08-20T12:17:25;1.83;;;1.30;;
39880;SDS011;25554;44.954;10.068;2022-08-20T12:19:54;1.65;;;1.40;;
39880;SDS011;25554;44.954;10.068;2022-08-20T12:22:22;1.17;;;1.10;;
39880;SDS011;25554;44.954;10.068;2022-08-20T12:24:50;1.08;;;0.98;;
39880;SDS011;25554;44.954;10.068;2022-08-20T12:29:45;1.40;;;1.30;;
39880;SDS011;25554;44.954;10.068;2022-08-20T12:32:13;2.17;;;1.17;;
39880;SDS011;25554;44.954;10.068;2022-08-20T12:34:40;1.38;;;1.27;;
39880;SDS011;25554;44.954;10.068;2022-08-20T12:37:08;1.42;;;1.13;;
39880;SDS011;25554;44.954;10.068;2022-08-20T12:39:37;2.45;;;1.33;;
39880;SDS011;25554;44.954;10.068;2022-08-20T12:42:05;1.63;;;1.15;;
39880;SDS011;25554;44.954;10.068;2022-08-20T12:44:32;1.38;;;1.15;;
39880;SDS011;25554;44.954;10.068;2022-08-20T12:49:32;1.75;;;1.08;;
39880;SDS011;25554;44.954;10.068;2022-08-20T12:51:59;1.55;;;1.10;;
39880;SDS011;25554;44.954;10.068;2022-08-20T12:54:25;2.45;;;1.13;;
39880;SDS011;25554;44.954;10.068;2022-08-20T12:56:52;1.58;;;1.48;;
39880;SDS011;25554;44.954;10.068;2022-08-20T12:59:21;1.30;;;1.20;;
39880;SDS011;25554;44.954;10.068;2022-08-20T13:01:51;1.20;;;1.10;;
39880;SDS011;25554;44.954;10.068;2022-08-20T13:04:18;1.80;;;1.42;;
39880;SDS011;25554;44.954;10.068;2022-08-20T13:06:45;2.38;;;1.33;;
39880;SDS011;25554;44.954;10.068;2022-08-20T13:09:13;1.67;;;1.58;;
39880;SDS011;25554;44.954;10.068;2022-08-20T13:11:39;2.03;;;1.23;;
39880;SDS011;25554;44.954;10.068;2022-08-20T13:14:06;2.42;;;1.38;;
39880;SDS011;25554;44.954;10.068;2022-08-20T13:16:33;19.60;;;8.43;;
39880;SDS011;25554;44.954;10.068;2022-08-20T13:18:59;2.35;;;1.70;;
39880;SDS011;25554;44.954;10.068;2022-08-20T13:21:26;2.15;;;1.40;;
39880;SDS011;25554;44.954;10.068;2022-08-20T13:23:52;3.65;;;1.65;;
39880;SDS011;25554;44.954;10.068;2022-08-20T13:26:19;1.58;;;1.48;;
39880;SDS011;25554;44.954;10.068;2022-08-20T13:28:45;6.07;;;1.55;;
39880;SDS011;25554;44.954;10.068;2022-08-20T13:31:12;1.45;;;1.35;;
39880;SDS011;25554;44.954;10.068;2022-08-20T13:33:38;3.90;;;1.60;;
39880;SDS011;25554;44.954;10.068;2022-08-20T13:36:05;1.40;;;1.30;;
39880;SDS011;25554;44.954;10.068;2022-08-20T13:38:31;1.58;;;1.45;;
39880;SDS011;25554;44.954;10.068;2022-08-20T13:40:58;2.60;;;1.40;;
39880;SDS011;25554;44.954;10.068;2022-08-20T13:43:24;2.60;;;1.50;;
39880;SDS011;25554;44.954;10.068;2022-08-20T13:45:50;1.52;;;1.40;;
39880;SDS011;25554;44.954;10.068;2022-08-20T13:48:17;1.58;;;1.48;;
39880;SDS011;25554;44.954;10.068;2022-08-20T13:50:43;4.03;;;1.60;;
39880;SDS011;25554;44.954;10.068;2022-08-20T13:53:10;1.88;;;1.42;;
39880;SDS011;25554;44.954;10.068;2022-08-20T13:55:36;2.08;;;1.50;;
39880;SDS011;25554;44.954;10.068;2022-08-20T13:58:03;3.22;;;1.60;;
39880;SDS011;25554;44.954;10.068;2022-08-20T14:00:31;1.73;;;1.27;;
39880;SDS011;25554;44.954;10.068;2022-08-20T14:02:59;3.13;;;1.80;;
39880;SDS011;25554;44.954;10.068;2022-08-20T14:05:27;1.58;;;1.42;;
39880;SDS011;25554;44.954;10.068;2022-08-20T14:08:02;3.80;;;1.63;;
39880;SDS011;25554;44.954;10.068;2022-08-20T14:10:30;1.75;;;1.40;;
39880;SDS011;25554;44.954;10.068;2022-08-20T14:12:58;2.72;;;1.80;;
39880;SDS011;25554;44.954;10.068;2022-08-20T14:15:25;3.10;;;2.13;;
39880;SDS011;25554;44.954;10.068;2022-08-20T14:17:52;1.52;;;1.42;;
39880;SDS011;25554;44.954;10.068;2022-08-20T14:20:21;2.78;;;1.50;;
39880;SDS011;25554;44.954;10.068;2022-08-20T14:22:50;11.05;;;6.00;;
39880;SDS011;25554;44.954;10.068;2022-08-20T14:25:17;1.27;;;1.17;;
39880;SDS011;25554;44.954;10.068;2022-08-20T14:27:45;1.33;;;1.23;;
39880;SDS011;25554;44.954;10.068;2022-08-20T14:30:15;1.58;;;1.27;;
39880;SDS011;25554;44.954;10.068;2022-08-20T14:32:43;1.70;;;1.40;;
39880;SDS011;25554;44.954;10.068;2022-08-20T14:35:10;2.35;;;1.20;;
39880;SDS011;25554;44.954;10.068;2022-08-20T14:37:37;1.50;;;1.40;;
39880;SDS011;25554;44.954;10.068;2022-08-20T14:40:07;2.78;;;1.50;;
39880;SDS011;25554;44.954;10.068;2022-08-20T14:42:35;2.75;;;1.27;;
39880;SDS011;25554;44.954;10.068;2022-08-20T14:45:03;1.40;;;1.20;;
39880;SDS011;25554;44.954;10.068;2022-08-20T14:47:33;1.10;;;1.10;;
39880;SDS011;25554;44.954;10.068;2022-08-20T14:50:03;1.27;;;1.17;;
39880;SDS011;25554;44.954;10.068;2022-08-20T14:52:34;1.38;;;1.27;;
39880;SDS011;25554;44.954;10.068;2022-08-20T14:55:05;2.15;;;1.45;;
39880;SDS011;25554;44.954;10.068;2022-08-20T14:57:33;1.50;;;1.40;;
39880;SDS011;25554;44.954;10.068;2022-08-20T14:59:59;1.27;;;1.17;;
39880;SDS011;25554;44.954;10.068;2022-08-20T15:02:26;1.50;;;1.40;;
39880;SDS011;25554;44.954;10.068;2022-08-20T15:04:53;2.10;;;1.77;;
39880;SDS011;25554;44.954;10.068;2022-08-20T15:07:30;4.20;;;1.30;;
39880;SDS011;25554;44.954;10.068;2022-08-20T15:09:59;1.45;;;1.17;;
39880;SDS011;25554;44.954;10.068;2022-08-20T15:12:27;1.80;;;1.33;;
39880;SDS011;25554;44.954;10.068;2022-08-20T15:14:53;1.65;;;1.10;;
39880;SDS011;25554;44.954;10.068;2022-08-20T15:17:21;0.85;;;0.85;;
39880;SDS011;25554;44.954;10.068;2022-08-20T15:19:51;1.17;;;1.08;;
39880;SDS011;25554;44.954;10.068;2022-08-20T15:22:17;2.65;;;1.10;;
39880;SDS011;25554;44.954;10.068;2022-08-20T15:24:44;2.55;;;1.58;;
39880;SDS011;25554;44.954;10.068;2022-08-20T15:29:42;1.33;;;1.23;;
39880;SDS011;25554;44.954;10.068;2022-08-20T15:32:08;1.90;;;1.10;;
39880;SDS011;25554;44.954;10.068;2022-08-20T15:34:36;1.38;;;1.00;;
39880;SDS011;25554;44.954;10.068;2022-08-20T15:37:07;1.50;;;1.20;;